createdAt,value
2023-05-05T00:00:32.478Z,10.6
2023-05-05T00:01:39.465Z,10.7
2023-05-05T00:02:46.476Z,10.7
2023-05-05T00:03:53.657Z,10.7
2023-05-05T00:05:00.555Z,10.7
2023-05-05T00:06:07.589Z,10.7
2023-05-05T00:07:14.613Z,10.6
2023-05-05T00:08:21.627Z,10.6
2023-05-05T00:09:28.602Z,10.6
2023-05-05T00:10:35.525Z,10.6
2023-05-05T00:11:43.420Z,10.5
2023-05-05T00:12:50.421Z,10.5
2023-05-05T00:13:57.278Z,10.5
2023-05-05T00:15:05.045Z,10.5
2023-05-05T00:16:12.170Z,10.4
2023-05-05T00:17:19.159Z,10.4
2023-05-05T00:18:26.100Z,10.3
2023-05-05T00:19:33.079Z,10.3
2023-05-05T00:20:40.071Z,10.3
2023-05-05T00:21:48.824Z,10.2
2023-05-05T00:22:55.773Z,10.2
2023-05-05T00:24:02.768Z,10.2
2023-05-05T00:25:09.794Z,10.2
2023-05-05T00:26:16.750Z,10.2
2023-05-05T00:27:23.773Z,10.2
2023-05-05T00:28:30.826Z,10.2
2023-05-05T00:29:37.832Z,9.9
2023-05-05T00:30:44.847Z,9.7
2023-05-05T00:31:51.864Z,9.8
2023-05-05T00:32:58.902Z,9.9
2023-05-05T00:34:05.822Z,9.9
2023-05-05T00:35:19.609Z,10
2023-05-05T00:36:26.620Z,9.9
2023-05-05T00:37:33.583Z,10
2023-05-05T00:38:40.562Z,10
2023-05-05T00:39:47.511Z,10.1
2023-05-05T00:40:54.457Z,10
2023-05-05T00:42:01.366Z,10
2023-05-05T00:43:08.338Z,10
2023-05-05T00:44:15.485Z,10
2023-05-05T00:45:22.583Z,10
2023-05-05T00:46:29.674Z,9.9
2023-05-05T00:47:36.620Z,9.9
2023-05-05T00:48:43.596Z,9.8
2023-05-05T00:49:50.868Z,9.8
2023-05-05T00:50:57.889Z,9.7
2023-05-05T00:52:04.831Z,9.7
2023-05-05T00:53:11.791Z,9.7
2023-05-05T00:54:18.830Z,9.7
2023-05-05T00:55:25.877Z,9.7
2023-05-05T00:56:32.825Z,9.7
2023-05-05T00:57:39.741Z,9.6
2023-05-05T00:58:46.755Z,9.6
2023-05-05T00:59:53.731Z,9.6
2023-05-05T01:01:00.806Z,9.6
2023-05-05T01:02:08.805Z,9.5
2023-05-05T01:03:16.757Z,9.5
2023-05-05T01:04:23.576Z,9.5
2023-05-05T01:05:30.525Z,9.4
2023-05-05T01:06:42.744Z,9.4
2023-05-05T01:07:54.902Z,9.4
2023-05-05T01:09:10.087Z,9.4
2023-05-05T01:10:27.603Z,9.5
2023-05-05T01:11:39.559Z,9.5
2023-05-05T01:12:54.928Z,9.5
2023-05-05T01:14:12.219Z,9.5
2023-05-05T01:15:19.208Z,9.5
2023-05-05T01:16:36.586Z,9.5
2023-05-05T01:17:43.737Z,9.5
2023-05-05T01:18:55.866Z,9.5
2023-05-05T01:20:14.226Z,9.5
2023-05-05T01:21:24.148Z,9.5
2023-05-05T01:22:33.902Z,9.5
2023-05-05T01:23:46.262Z,9.5
2023-05-05T01:25:01.404Z,9.5
2023-05-05T01:26:16.703Z,9.6
2023-05-05T01:27:34.209Z,9.6
2023-05-05T01:28:51.377Z,9.6
2023-05-05T01:30:08.936Z,9.6
2023-05-05T01:31:18.490Z,9.6
2023-05-05T01:32:35.767Z,9.6
2023-05-05T01:33:42.692Z,9.6
2023-05-05T01:34:49.605Z,9.6
2023-05-05T01:36:01.795Z,9.6
2023-05-05T01:37:11.606Z,9.7
2023-05-05T01:38:18.498Z,9.7
2023-05-05T01:39:25.462Z,9.7
2023-05-05T01:40:32.346Z,9.8
2023-05-05T01:41:41.914Z,9.8
2023-05-05T01:42:48.840Z,9.8
2023-05-05T01:43:55.757Z,9.8
2023-05-05T01:45:03.602Z,9.8
2023-05-05T01:46:10.834Z,9.8
2023-05-05T01:47:17.783Z,9.8
2023-05-05T01:48:24.715Z,9.8
2023-05-05T01:49:31.599Z,9.8
2023-05-05T01:50:38.572Z,9.9
2023-05-05T01:51:45.569Z,9.9
2023-05-05T01:52:52.510Z,9.9
2023-05-05T01:53:59.434Z,9.9
2023-05-05T01:55:06.336Z,9.9
2023-05-05T01:56:13.278Z,9.9
2023-05-05T01:57:20.233Z,9.8
2023-05-05T01:58:27.271Z,9.8
2023-05-05T01:59:34.344Z,9.8
2023-05-05T02:00:41.259Z,9.7
2023-05-05T02:01:48.303Z,9.7
2023-05-05T02:02:55.366Z,9.6
2023-05-05T02:04:02.369Z,9.6
2023-05-05T02:05:09.525Z,9.5
2023-05-05T02:06:16.432Z,9.5
2023-05-05T02:07:23.553Z,9.5
2023-05-05T02:08:30.582Z,9.4
2023-05-05T02:09:37.583Z,9.4
2023-05-05T02:10:45.604Z,9.4
2023-05-05T02:11:52.595Z,9.4
2023-05-05T02:13:02.883Z,9.4
2023-05-05T02:14:09.869Z,9.4
2023-05-05T02:15:16.832Z,9.4
2023-05-05T02:16:23.942Z,9.4
2023-05-05T02:17:30.910Z,9.4
2023-05-05T02:18:37.981Z,9.4
2023-05-05T02:19:45.047Z,9.4
2023-05-05T02:20:52.042Z,9.4
2023-05-05T02:21:59.074Z,9.4
2023-05-05T02:23:06.100Z,9.4
2023-05-05T02:24:12.946Z,9.3
2023-05-05T02:25:19.907Z,9.3
2023-05-05T02:26:26.878Z,9.3
2023-05-05T02:27:35.721Z,9.3
2023-05-05T02:28:42.670Z,9.2
2023-05-05T02:29:52.190Z,9.2
2023-05-05T02:31:01.983Z,9.2
2023-05-05T02:32:08.994Z,9.2
2023-05-05T02:33:24.949Z,9.2
2023-05-05T02:34:31.917Z,9.2
2023-05-05T02:35:38.862Z,9.2
2023-05-05T02:36:45.826Z,9.2
2023-05-05T02:37:52.764Z,9.1
2023-05-05T02:38:59.813Z,9.2
2023-05-05T02:40:15.929Z,9.2
2023-05-05T02:41:22.930Z,9.2
2023-05-05T02:42:29.986Z,9.3
2023-05-05T02:43:39.657Z,9.3
2023-05-05T02:44:46.752Z,9.3
2023-05-05T02:45:53.779Z,9.3
2023-05-05T02:47:00.855Z,9.3
2023-05-05T02:48:10.810Z,9.3
2023-05-05T02:49:17.918Z,9.4
2023-05-05T02:50:25.034Z,9.4
2023-05-05T02:51:32.012Z,9.4
2023-05-05T02:52:39.047Z,9.4
2023-05-05T02:53:46.081Z,9.4
2023-05-05T02:54:53.104Z,9.4
2023-05-05T02:56:00.132Z,9.4
2023-05-05T02:57:15.055Z,9.4
2023-05-05T02:58:21.971Z,9.3
2023-05-05T02:59:31.656Z,9.3
2023-05-05T03:00:46.952Z,9.3
2023-05-05T03:01:53.985Z,9.3
2023-05-05T03:03:03.600Z,9.2
2023-05-05T03:04:13.519Z,9.2
2023-05-05T03:05:25.648Z,9.2
2023-05-05T03:06:32.608Z,9.2
2023-05-05T03:07:44.823Z,9.2
2023-05-05T03:08:57.014Z,9.2
2023-05-05T03:10:09.451Z,9.2
2023-05-05T03:11:16.188Z,9.2
2023-05-05T03:12:25.698Z,9.2
2023-05-05T03:13:32.763Z,9.2
2023-05-05T03:14:39.769Z,9.2
2023-05-05T03:15:46.706Z,9.2
2023-05-05T03:16:53.672Z,9.3
2023-05-05T03:18:00.632Z,9.3
2023-05-05T03:19:07.580Z,9.3
2023-05-05T03:20:14.522Z,9.3
2023-05-05T03:21:21.441Z,9.3
2023-05-05T03:22:28.453Z,9.3
2023-05-05T03:23:35.404Z,9.2
2023-05-05T03:24:42.358Z,9.2
2023-05-05T03:25:49.197Z,9.2
2023-05-05T03:26:56.131Z,9.2
2023-05-05T03:28:03.120Z,9.1
2023-05-05T03:29:10.007Z,9.1
2023-05-05T03:30:16.945Z,9.2
2023-05-05T03:31:24.981Z,9.1
2023-05-05T03:32:31.932Z,9.1
2023-05-05T03:33:38.963Z,9.2
2023-05-05T03:34:46.007Z,9.2
2023-05-05T03:35:53.031Z,9.1
2023-05-05T03:37:00.049Z,9.1
2023-05-05T03:38:07.098Z,9.1
2023-05-05T03:39:13.974Z,9.1
2023-05-05T03:40:23.506Z,9.1
2023-05-05T03:41:27.969Z,9.1
2023-05-05T03:42:35.018Z,9.1
2023-05-05T03:43:41.946Z,9.1
2023-05-05T03:44:48.999Z,9.1
2023-05-05T03:45:56.056Z,9.1
2023-05-05T03:47:03.918Z,9.1
2023-05-05T03:48:10.877Z,9.1
2023-05-05T03:49:17.921Z,9.1
2023-05-05T03:50:24.986Z,9.1
2023-05-05T03:51:31.994Z,9.1
2023-05-05T03:52:38.996Z,9.1
2023-05-05T03:53:45.883Z,9.1
2023-05-05T03:54:52.744Z,9
2023-05-05T03:55:59.686Z,9
2023-05-05T03:57:06.738Z,9
2023-05-05T03:58:13.678Z,9
2023-05-05T03:59:20.673Z,9
2023-05-05T04:00:27.650Z,9
2023-05-05T04:01:34.550Z,9
2023-05-05T04:02:41.527Z,9
2023-05-05T04:03:48.561Z,9
2023-05-05T04:04:55.459Z,9.1
2023-05-05T04:06:02.554Z,9.1
2023-05-05T04:07:09.647Z,9.1
2023-05-05T04:08:16.755Z,9.1
2023-05-05T04:09:23.715Z,9.1
2023-05-05T04:10:30.884Z,9.1
2023-05-05T04:11:37.872Z,9.1
2023-05-05T04:12:45.571Z,9.1
2023-05-05T04:13:52.734Z,9.1
2023-05-05T04:14:59.728Z,9.1
2023-05-05T04:16:06.817Z,9.1
2023-05-05T04:17:13.820Z,9.1
2023-05-05T04:18:20.810Z,9.1
2023-05-05T04:19:27.752Z,9.1
2023-05-05T04:20:37.461Z,9.1
2023-05-05T04:21:44.489Z,9.1
2023-05-05T04:22:52.676Z,9.1
2023-05-05T04:23:58.321Z,9.1
2023-05-05T04:25:05.255Z,9.1
2023-05-05T04:26:12.380Z,9.1
2023-05-05T04:27:19.397Z,9.2
2023-05-05T04:28:26.454Z,9.1
2023-05-05T04:29:33.397Z,9.1
2023-05-05T04:30:40.428Z,9.2
2023-05-05T04:31:47.471Z,9.2
2023-05-05T04:32:54.376Z,9.2
2023-05-05T04:34:01.279Z,9.2
2023-05-05T04:35:08.303Z,9.3
2023-05-05T04:36:15.374Z,9.3
2023-05-05T04:37:22.431Z,9.3
2023-05-05T04:38:29.417Z,9.3
2023-05-05T04:39:36.339Z,9.4
2023-05-05T04:40:43.331Z,9.4
2023-05-05T04:41:50.299Z,9.4
2023-05-05T04:42:57.290Z,9.4
2023-05-05T04:44:04.473Z,9.4
2023-05-05T04:45:12.700Z,9.4
2023-05-05T04:46:19.789Z,9.5
2023-05-05T04:47:26.926Z,9.5
2023-05-05T04:48:33.867Z,9.5
2023-05-05T04:49:40.970Z,9.5
2023-05-05T04:50:47.971Z,9.5
2023-05-05T04:51:54.995Z,9.5
2023-05-05T04:53:02.005Z,9.6
2023-05-05T04:54:09.059Z,9.6
2023-05-05T04:55:16.759Z,9.6
2023-05-05T04:56:24.217Z,9.6
2023-05-05T04:57:34.812Z,9.6
2023-05-05T04:58:41.932Z,9.6
2023-05-05T04:59:49.196Z,9.6
2023-05-05T05:00:56.221Z,9.6
2023-05-05T05:02:06.991Z,9.6
2023-05-05T05:03:14.116Z,9.6
2023-05-05T05:04:21.042Z,9.6
2023-05-05T05:05:28.298Z,9.7
2023-05-05T05:06:35.362Z,9.7
2023-05-05T05:07:42.343Z,9.7
2023-05-05T05:08:49.424Z,9.7
2023-05-05T05:09:56.434Z,9.8
2023-05-05T05:11:03.504Z,9.8
2023-05-05T05:12:10.502Z,9.7
2023-05-05T05:13:17.429Z,9.8
2023-05-05T05:14:24.283Z,9.9
2023-05-05T05:15:31.184Z,9.9
2023-05-05T05:16:38.191Z,9.9
2023-05-05T05:17:45.156Z,10
2023-05-05T05:18:52.107Z,10
2023-05-05T05:19:59.026Z,10
2023-05-05T05:21:05.987Z,10
2023-05-05T05:22:12.973Z,10.1
2023-05-05T05:23:19.943Z,10.2
2023-05-05T05:24:26.903Z,10.2
2023-05-05T05:25:33.812Z,10.2
2023-05-05T05:26:40.758Z,10.3
2023-05-05T05:27:52.432Z,10.3
2023-05-05T05:28:54.698Z,10.4
2023-05-05T05:30:01.814Z,10.5
2023-05-05T05:31:09.105Z,10.5
2023-05-05T05:32:16.182Z,10.5
2023-05-05T05:33:23.166Z,10.4
2023-05-05T05:34:30.123Z,10.2
2023-05-05T05:35:37.126Z,10.4
2023-05-05T05:36:44.080Z,10.5
2023-05-05T05:37:50.952Z,10.6
2023-05-05T05:38:57.840Z,10.3
2023-05-05T05:40:04.729Z,10.3
2023-05-05T05:41:12.096Z,10.4
2023-05-05T05:42:19.309Z,10.6
2023-05-05T05:43:26.267Z,10.8
2023-05-05T05:44:33.119Z,10.9
2023-05-05T05:45:40.173Z,11
2023-05-05T05:46:47.172Z,11
2023-05-05T05:47:54.114Z,11.1
2023-05-05T05:49:01.076Z,11.2
2023-05-05T05:50:08.370Z,11.2
2023-05-05T05:51:15.147Z,11.3
2023-05-05T05:52:22.110Z,11.4
2023-05-05T05:53:29.137Z,11.3
2023-05-05T05:54:36.188Z,11.4
2023-05-05T05:55:43.232Z,11.5
2023-05-05T05:56:50.246Z,11.5
2023-05-05T05:57:57.164Z,11.6
2023-05-05T05:59:04.220Z,11.6
2023-05-05T06:00:13.921Z,11.7
2023-05-05T06:01:21.153Z,11.7
2023-05-05T06:02:28.324Z,11.7
2023-05-05T06:03:35.403Z,11.5
2023-05-05T06:04:42.202Z,11.8
2023-05-05T06:05:49.168Z,11.9
2023-05-05T06:06:56.080Z,12.1
2023-05-05T06:08:02.997Z,12.1
2023-05-05T06:09:09.957Z,12
2023-05-05T06:10:27.095Z,11.7
2023-05-05T06:11:23.852Z,12
2023-05-05T06:12:30.878Z,12.1
2023-05-05T06:13:37.728Z,12.1
2023-05-05T06:14:44.682Z,12.3
2023-05-05T06:15:51.622Z,12.5
2023-05-05T06:16:58.549Z,12.6
2023-05-05T06:18:05.603Z,12.7
2023-05-05T06:19:12.583Z,12.7
2023-05-05T06:20:19.549Z,12.7
2023-05-05T06:21:26.529Z,12.9
2023-05-05T06:22:33.581Z,13
2023-05-05T06:23:40.655Z,13.1
2023-05-05T06:24:47.640Z,13.2
2023-05-05T06:25:54.657Z,13.4
2023-05-05T06:27:01.540Z,13.6
2023-05-05T06:28:08.680Z,13.6
2023-05-05T06:29:15.658Z,13.6
2023-05-05T06:30:22.656Z,13.8
2023-05-05T06:31:29.669Z,13.6
2023-05-05T06:32:36.600Z,13.8
2023-05-05T06:33:43.530Z,13.6
2023-05-05T06:34:50.423Z,13.8
2023-05-05T06:35:57.269Z,13.9
2023-05-05T06:37:04.240Z,14.2
2023-05-05T06:38:11.161Z,14.1
2023-05-05T06:39:18.059Z,14
2023-05-05T06:40:25.131Z,14.2
2023-05-05T06:41:32.120Z,14.3
2023-05-05T06:42:39.062Z,14.3
2023-05-05T06:43:45.974Z,14.4
2023-05-05T06:44:53.050Z,14.5
2023-05-05T06:46:00.234Z,14.5
2023-05-05T06:47:07.270Z,14.6
2023-05-05T06:48:14.160Z,14.7
2023-05-05T06:49:21.083Z,14.6
2023-05-05T06:50:27.991Z,14.7
2023-05-05T06:51:34.884Z,14.6
2023-05-05T06:52:41.853Z,14.8
2023-05-05T06:53:49.914Z,14.8
2023-05-05T06:54:56.783Z,14.8
2023-05-05T06:56:03.690Z,15
2023-05-05T06:57:14.747Z,14.9
2023-05-05T06:58:22.935Z,14.6
2023-05-05T06:59:29.812Z,14.8
2023-05-05T07:00:36.732Z,14.9
2023-05-05T07:01:43.688Z,15.1
2023-05-05T07:02:50.599Z,15.2
2023-05-05T07:03:57.671Z,15.4
2023-05-05T07:05:04.682Z,15.4
2023-05-05T07:06:11.650Z,15.4
2023-05-05T07:07:18.592Z,15.5
2023-05-05T07:08:25.557Z,15.5
2023-05-05T07:09:32.505Z,15.5
2023-05-05T07:10:39.349Z,15.4
2023-05-05T07:11:46.293Z,15.6
2023-05-05T07:12:53.278Z,15.6
2023-05-05T07:14:00.427Z,15.7
2023-05-05T07:15:15.727Z,15.7
2023-05-05T07:16:14.328Z,15.8
2023-05-05T07:17:21.410Z,15.9
2023-05-05T07:18:28.191Z,15.6
2023-05-05T07:19:35.183Z,15.4
2023-05-05T07:20:42.064Z,15.2
2023-05-05T07:21:48.907Z,15.5
2023-05-05T07:22:56.060Z,15.5
2023-05-05T07:24:02.915Z,15.5
2023-05-05T07:25:10.031Z,15.8
2023-05-05T07:26:16.895Z,15.6
2023-05-05T07:27:23.756Z,15.6
2023-05-05T07:28:30.674Z,15.5
2023-05-05T07:29:37.683Z,15.6
2023-05-05T07:30:44.775Z,15.7
2023-05-05T07:31:51.720Z,15.6
2023-05-05T07:32:59.021Z,15.6
2023-05-05T07:34:05.843Z,15.7
2023-05-05T07:35:12.744Z,16
2023-05-05T07:36:19.725Z,16.2
2023-05-05T07:37:26.628Z,16.2
2023-05-05T07:38:33.561Z,16.3
2023-05-05T07:39:40.360Z,16.4
2023-05-05T07:40:47.221Z,16.2
2023-05-05T07:41:54.139Z,16.2
2023-05-05T07:43:00.977Z,16.2
2023-05-05T07:44:07.994Z,16.2
2023-05-05T07:45:14.935Z,16.3
2023-05-05T07:46:22.092Z,16.3
2023-05-05T07:47:29.106Z,16.4
2023-05-05T07:48:36.213Z,16.2
2023-05-05T07:49:42.862Z,16.1
2023-05-05T07:50:49.741Z,16.4
2023-05-05T07:51:56.636Z,16.3
2023-05-05T07:53:13.439Z,16.4
2023-05-05T07:54:10.545Z,16.4
2023-05-05T07:55:17.564Z,16.6
2023-05-05T07:56:24.585Z,16.8
2023-05-05T07:57:31.602Z,16.6
2023-05-05T07:58:38.561Z,16.6
2023-05-05T07:59:45.538Z,16.9
2023-05-05T08:00:52.491Z,17
2023-05-05T08:01:59.378Z,17.2
2023-05-05T08:03:08.382Z,17.3
2023-05-05T08:04:13.646Z,17.5
2023-05-05T08:05:20.194Z,17.6
2023-05-05T08:06:27.043Z,17.2
2023-05-05T08:07:33.929Z,17.3
2023-05-05T08:08:40.981Z,17.4
2023-05-05T08:09:47.999Z,17.5
2023-05-05T08:10:55.100Z,17.6
2023-05-05T08:12:02.153Z,17.7
2023-05-05T08:13:09.121Z,17.9
2023-05-05T08:14:16.005Z,17.9
2023-05-05T08:15:23.066Z,17.3
2023-05-05T08:16:30.022Z,17.5
2023-05-05T08:17:36.897Z,17.6
2023-05-05T08:18:51.832Z,17.9
2023-05-05T08:19:58.859Z,18
2023-05-05T08:21:05.571Z,18
2023-05-05T08:22:12.617Z,17.8
2023-05-05T08:23:19.535Z,17.7
2023-05-05T08:24:26.472Z,17.7
2023-05-05T08:25:33.490Z,17.5
2023-05-05T08:26:40.454Z,17.7
2023-05-05T08:27:48.841Z,17.8
2023-05-05T08:29:00.227Z,17.7
2023-05-05T08:30:07.049Z,17.6
2023-05-05T08:31:14.176Z,17.6
2023-05-05T08:32:21.113Z,17.7
2023-05-05T08:33:28.159Z,17.9
2023-05-05T08:34:35.034Z,18.1
2023-05-05T08:35:42.302Z,17.9
2023-05-05T08:36:49.160Z,18
2023-05-05T08:37:58.239Z,18.3
2023-05-05T08:39:03.004Z,18.4
2023-05-05T08:40:09.930Z,18.4
2023-05-05T08:41:19.759Z,18.5
2023-05-05T08:42:36.804Z,18.7
2023-05-05T08:43:33.765Z,18.7
2023-05-05T08:44:40.725Z,18.7
2023-05-05T08:45:47.699Z,18.7
2023-05-05T08:46:57.662Z,18.2
2023-05-05T08:48:04.628Z,18
2023-05-05T08:49:11.520Z,18.3
2023-05-05T08:50:18.484Z,18.5
2023-05-05T08:51:25.775Z,18.7
2023-05-05T08:52:32.445Z,18.5
2023-05-05T08:53:42.175Z,18.6
2023-05-05T08:54:54.284Z,18.7
2023-05-05T08:56:01.207Z,18.7
2023-05-05T08:57:08.344Z,18.9
2023-05-05T08:58:15.408Z,18.8
2023-05-05T08:59:22.359Z,18.9
2023-05-05T09:00:29.375Z,19
2023-05-05T09:01:36.576Z,19.1
2023-05-05T09:02:43.658Z,19.2
2023-05-05T09:03:50.702Z,19.3
2023-05-05T09:04:57.591Z,19.2
2023-05-05T09:06:04.584Z,19.2
2023-05-05T09:07:11.586Z,18.8
2023-05-05T09:08:18.458Z,19
2023-05-05T09:09:25.423Z,19.1
2023-05-05T09:10:32.362Z,19.2
2023-05-05T09:11:39.420Z,19.4
2023-05-05T09:12:46.441Z,19.5
2023-05-05T09:15:31.072Z,19.1
2023-05-05T09:16:38.050Z,19.1
2023-05-05T09:17:44.987Z,19
2023-05-05T09:18:51.937Z,19
2023-05-05T09:20:04.107Z,19.2
2023-05-05T09:21:11.143Z,19.5
2023-05-05T09:22:23.305Z,19.7
2023-05-05T09:23:35.398Z,19.7
2023-05-05T09:24:42.535Z,19.8
2023-05-05T09:25:57.660Z,19.7
2023-05-05T09:27:07.175Z,19.7
2023-05-05T09:28:14.085Z,19.7
2023-05-05T09:29:20.976Z,19.8
2023-05-05T09:30:27.913Z,19.9
2023-05-05T09:31:34.976Z,19.9
2023-05-05T09:32:41.870Z,19.9
2023-05-05T09:33:48.712Z,20
2023-05-05T09:34:55.585Z,20.1
2023-05-05T09:36:02.488Z,20.1
2023-05-05T09:37:09.604Z,20
2023-05-05T09:38:16.556Z,19.8
2023-05-05T09:39:23.617Z,19.9
2023-05-05T09:40:30.519Z,19.7
2023-05-05T09:41:37.524Z,19.7
2023-05-05T09:42:44.433Z,19.9
2023-05-05T09:43:51.362Z,19.8
2023-05-05T09:44:59.879Z,19.9
2023-05-05T09:46:05.218Z,20
2023-05-05T09:47:22.276Z,20
2023-05-05T09:48:19.160Z,19.7
2023-05-05T09:49:29.055Z,20
2023-05-05T09:50:35.962Z,20
2023-05-05T09:51:45.689Z,20
2023-05-05T09:52:52.668Z,20.2
2023-05-05T09:54:02.720Z,20.2
2023-05-05T09:55:09.651Z,20.4
2023-05-05T09:56:21.735Z,20.3
2023-05-05T09:57:28.681Z,20.3
2023-05-05T09:58:35.697Z,20.2
2023-05-05T09:59:42.510Z,20.3
2023-05-05T10:00:54.602Z,20.3
2023-05-05T10:02:01.629Z,20.3
2023-05-05T10:03:13.675Z,20.3
2023-05-05T10:04:20.814Z,20.3
2023-05-05T10:05:27.789Z,20.2
2023-05-05T10:06:34.773Z,20.4
2023-05-05T10:07:46.978Z,20.5
2023-05-05T10:08:53.891Z,20.6
2023-05-05T10:10:03.841Z,20.8
2023-05-05T10:11:10.776Z,20.9
2023-05-05T10:12:17.739Z,21
2023-05-05T10:13:24.706Z,20.9
2023-05-05T10:14:31.598Z,21
2023-05-05T10:15:38.468Z,21.1
2023-05-05T10:16:45.618Z,20.7
2023-05-05T10:18:05.715Z,19.5
2023-05-05T10:18:59.417Z,19.9
2023-05-05T10:20:06.545Z,20.3
2023-05-05T10:21:13.357Z,20.5
2023-05-05T10:22:20.269Z,20.6
2023-05-05T10:23:27.160Z,20.5
2023-05-05T10:24:39.231Z,20.4
2023-05-05T10:25:46.193Z,20.7
2023-05-05T10:27:00.852Z,20.7
2023-05-05T10:28:07.855Z,20.3
2023-05-05T10:29:14.743Z,19.7
2023-05-05T10:30:29.895Z,19.9
2023-05-05T10:31:36.841Z,20.3
2023-05-05T10:32:57.196Z,20.7
2023-05-05T10:33:58.514Z,20.8
2023-05-05T10:35:11.201Z,21
2023-05-05T10:36:23.796Z,21.2
2023-05-05T10:37:30.774Z,20.6
2023-05-05T10:38:37.642Z,20.4
2023-05-05T10:39:44.561Z,20.2
2023-05-05T10:40:51.618Z,20
2023-05-05T10:41:58.447Z,20.4
2023-05-05T10:43:05.411Z,20.6
2023-05-05T10:44:12.349Z,20.5
2023-05-05T10:45:20.165Z,20.8
2023-05-05T10:46:27.111Z,21
2023-05-05T10:47:34.120Z,21.1
2023-05-05T10:48:40.932Z,21.1
2023-05-05T10:49:55.841Z,21.1
2023-05-05T10:51:10.641Z,21
2023-05-05T10:52:27.880Z,21
2023-05-05T10:53:40.026Z,21
2023-05-05T10:54:52.166Z,21.1
2023-05-05T10:55:59.196Z,21.3
2023-05-05T10:57:11.147Z,21.4
2023-05-05T10:58:18.077Z,21.3
2023-05-05T10:59:35.417Z,21
2023-05-05T11:00:42.277Z,20.5
2023-05-05T11:01:51.797Z,19.9
2023-05-05T11:02:58.725Z,20
2023-05-05T11:04:10.803Z,19.7
2023-05-05T11:05:22.927Z,20.1
2023-05-05T11:06:29.954Z,20.7
2023-05-05T11:07:37.128Z,20.3
2023-05-05T11:08:44.036Z,20.2
2023-05-05T11:09:50.907Z,19.8
2023-05-05T11:11:00.844Z,19.8
2023-05-05T11:12:07.863Z,20.2
2023-05-05T11:13:14.688Z,20.6
2023-05-05T11:14:21.587Z,20.6
2023-05-05T11:15:28.494Z,20.9
2023-05-05T11:16:35.713Z,20.8
2023-05-05T11:17:47.774Z,21.1
2023-05-05T11:18:54.745Z,21.2
2023-05-05T11:20:01.906Z,21.3
2023-05-05T11:21:09.402Z,21.3
2023-05-05T11:22:19.404Z,21.4
2023-05-05T11:23:26.386Z,21.4
2023-05-05T11:24:33.280Z,21.4
2023-05-05T11:25:40.164Z,21.6
2023-05-05T11:26:47.030Z,21.8
2023-05-05T11:27:56.871Z,21.9
2023-05-05T11:29:11.645Z,21.5
2023-05-05T11:30:18.543Z,21.3
2023-05-05T11:31:25.526Z,21.5
2023-05-05T11:32:32.476Z,21.2
2023-05-05T11:33:39.336Z,21.3
2023-05-05T11:34:46.276Z,21.2
2023-05-05T11:35:53.185Z,21.6
2023-05-05T11:37:00.207Z,21.7
2023-05-05T11:38:07.119Z,21.3
2023-05-05T11:39:14.067Z,21.3
2023-05-05T11:40:26.374Z,21.5
2023-05-05T11:41:33.353Z,20.8
2023-05-05T11:42:43.333Z,21
2023-05-05T11:43:50.360Z,21.3
2023-05-05T11:45:07.637Z,21.6
2023-05-05T11:46:24.996Z,21.6
2023-05-05T11:47:32.069Z,21
2023-05-05T11:48:39.003Z,20.8
2023-05-05T11:49:51.189Z,20.8
2023-05-05T11:50:58.166Z,21.2
2023-05-05T11:52:05.068Z,21.2
2023-05-05T11:53:14.790Z,21.6
2023-05-05T11:54:21.654Z,21.6
2023-05-05T11:55:28.656Z,21.7
2023-05-05T11:56:35.677Z,21.8
2023-05-05T11:57:42.485Z,21.6
2023-05-05T11:58:49.417Z,21.5
2023-05-05T12:00:07.112Z,21.6
2023-05-05T12:01:14.030Z,21.7
2023-05-05T12:02:20.972Z,21.6
2023-05-05T12:03:27.986Z,21.6
2023-05-05T12:04:37.505Z,21.2
2023-05-05T12:05:44.416Z,20.7
2023-05-05T12:06:51.294Z,21
2023-05-05T12:07:58.294Z,21.3
2023-05-05T12:09:05.320Z,21.2
2023-05-05T12:10:20.197Z,21.4
2023-05-05T12:11:27.248Z,21.6
2023-05-05T12:12:34.070Z,21.6
2023-05-05T12:13:41.022Z,21.3
2023-05-05T12:14:47.948Z,21.5
2023-05-05T12:15:58.096Z,21.7
2023-05-05T12:17:12.716Z,21.7
2023-05-05T12:18:19.581Z,21.6
2023-05-05T12:19:26.567Z,21.6
2023-05-05T12:20:33.688Z,21.7
2023-05-05T12:21:40.658Z,21.7
2023-05-05T12:22:47.514Z,21.8
2023-05-05T12:23:54.511Z,21.9
2023-05-05T12:25:01.598Z,22
2023-05-05T12:26:08.737Z,21.9
2023-05-05T12:27:26.056Z,21.9
2023-05-05T12:28:33.000Z,21.9
2023-05-05T12:29:48.126Z,21.6
2023-05-05T12:30:55.290Z,21.3
2023-05-05T12:32:02.443Z,21.4
2023-05-05T12:33:09.398Z,21.6
2023-05-05T12:34:16.346Z,21.8
2023-05-05T12:35:23.339Z,21.7
2023-05-05T12:36:30.529Z,21.6
2023-05-05T12:37:37.173Z,21.1
2023-05-05T12:38:44.124Z,21
2023-05-05T12:39:51.104Z,21.2
2023-05-05T12:41:00.818Z,21.1
2023-05-05T12:42:08.140Z,21.2
2023-05-05T12:43:15.079Z,21.4
2023-05-05T12:44:30.063Z,21.6
2023-05-05T12:46:09.827Z,21.6
2023-05-05T12:47:16.718Z,21.6
2023-05-05T12:48:33.938Z,21.5
2023-05-05T12:49:40.997Z,21.7
2023-05-05T12:50:54.021Z,21.5
2023-05-05T12:52:11.425Z,21.7
2023-05-05T12:53:18.376Z,21.5
2023-05-05T12:54:25.338Z,21.4
2023-05-05T12:55:35.362Z,21.3
2023-05-05T12:56:42.361Z,21.1
2023-05-05T12:57:51.818Z,21.3
2023-05-05T12:59:04.577Z,21.2
2023-05-05T13:00:16.295Z,21.3
2023-05-05T13:01:23.550Z,21.4
2023-05-05T13:02:30.570Z,21.4
2023-05-05T13:03:37.534Z,21.5
2023-05-05T13:04:44.531Z,21.6
2023-05-05T13:05:51.481Z,21.6
2023-05-05T13:06:58.491Z,21.4
2023-05-05T13:08:10.659Z,21.6
2023-05-05T13:09:17.707Z,21.7
2023-05-05T13:10:27.726Z,21.8
2023-05-05T13:11:34.752Z,21.9
2023-05-05T13:12:41.809Z,21.7
2023-05-05T13:13:48.673Z,21.7
2023-05-05T13:14:55.613Z,21.9
2023-05-05T13:16:02.596Z,21.9
2023-05-05T13:17:09.593Z,21.9
2023-05-05T13:18:16.607Z,22
2023-05-05T13:19:23.514Z,21.9
2023-05-05T13:20:30.537Z,21.9
2023-05-05T13:21:37.549Z,21.9
2023-05-05T13:22:44.530Z,22
2023-05-05T13:23:51.514Z,22
2023-05-05T13:24:58.512Z,21.9
2023-05-05T13:26:05.533Z,22
2023-05-05T13:27:12.557Z,22.2
2023-05-05T13:28:19.602Z,22.2
2023-05-05T13:29:30.596Z,22.1
2023-05-05T13:30:33.732Z,22.2
2023-05-05T13:31:41.053Z,22.2
2023-05-05T13:32:47.770Z,22.1
2023-05-05T13:33:54.832Z,22
2023-05-05T13:35:01.725Z,22.1
2023-05-05T13:36:09.125Z,22.1
2023-05-05T13:37:16.081Z,22.1
2023-05-05T13:38:23.119Z,21.9
2023-05-05T13:39:30.040Z,22
2023-05-05T13:40:37.042Z,22.1
2023-05-05T13:41:43.975Z,22
2023-05-05T13:42:51.050Z,22.2
2023-05-05T13:43:58.079Z,22.2
2023-05-05T13:45:05.022Z,22.2
2023-05-05T13:46:19.539Z,22.1
2023-05-05T13:47:20.672Z,22.1
2023-05-05T13:48:27.539Z,22.3
2023-05-05T13:49:34.595Z,22.3
2023-05-05T13:50:41.470Z,22.3
2023-05-05T13:51:48.486Z,22.3
2023-05-05T13:52:55.589Z,22.3
2023-05-05T13:54:02.596Z,22.3
2023-05-05T13:55:09.717Z,22.1
2023-05-05T13:56:16.414Z,22.2
2023-05-05T13:57:24.251Z,22.3
2023-05-05T13:58:31.101Z,22.2
2023-05-05T13:59:38.076Z,22.1
2023-05-05T14:00:45.076Z,22.3
2023-05-05T14:01:51.975Z,22.3
2023-05-05T14:02:58.863Z,22.3
2023-05-05T14:04:06.190Z,22.4
2023-05-05T14:05:12.992Z,22
2023-05-05T14:06:19.775Z,22.1
2023-05-05T14:07:26.824Z,22.1
2023-05-05T14:08:33.723Z,22.1
2023-05-05T14:09:41.637Z,22.1
2023-05-05T14:10:49.544Z,21.6
2023-05-05T14:11:55.377Z,21.8
2023-05-05T14:13:03.220Z,22
2023-05-05T14:14:13.195Z,22
2023-05-05T14:15:20.269Z,22
2023-05-05T14:16:31.062Z,22.1
2023-05-05T14:17:38.095Z,22.2
2023-05-05T14:18:44.918Z,22.1
2023-05-05T14:19:51.792Z,22.2
2023-05-05T14:20:58.792Z,22.3
2023-05-05T14:22:05.583Z,22.2
2023-05-05T14:23:12.510Z,22.2
2023-05-05T14:24:19.411Z,22.3
2023-05-05T14:25:26.421Z,22
2023-05-05T14:26:33.526Z,22
2023-05-05T14:27:40.417Z,22.1
2023-05-05T14:28:49.673Z,21.9
2023-05-05T14:29:54.734Z,21.9
2023-05-05T14:31:01.666Z,21.8
2023-05-05T14:32:08.679Z,21.9
2023-05-05T14:33:15.739Z,22
2023-05-05T14:34:22.652Z,21.7
2023-05-05T14:35:29.504Z,21.6
2023-05-05T14:36:36.484Z,21.6
2023-05-05T14:37:43.347Z,21.4
2023-05-05T14:38:50.256Z,21.4
2023-05-05T14:39:57.165Z,21.5
2023-05-05T14:41:04.146Z,21.4
2023-05-05T14:42:11.066Z,21.6
2023-05-05T14:43:18.077Z,21.5
2023-05-05T14:44:25.060Z,21.5
2023-05-05T14:45:32.123Z,21.5
2023-05-05T14:46:39.033Z,21.4
2023-05-05T14:47:45.958Z,21.5
2023-05-05T14:48:52.933Z,21.5
2023-05-05T14:49:59.871Z,21.6
2023-05-05T14:51:07.845Z,21.6
2023-05-05T14:52:14.744Z,21.7
2023-05-05T14:53:21.608Z,21.9
2023-05-05T14:54:29.068Z,22
2023-05-05T14:55:35.541Z,21.9
2023-05-05T14:56:42.480Z,21.8
2023-05-05T14:57:49.306Z,21.9
2023-05-05T14:58:56.183Z,21.9
2023-05-05T15:00:03.193Z,21.9
2023-05-05T15:01:10.389Z,21.9
2023-05-05T15:02:17.212Z,22
2023-05-05T15:03:24.216Z,21.8
2023-05-05T15:04:31.014Z,21.7
2023-05-05T15:05:37.836Z,21.8
2023-05-05T15:06:44.678Z,21.8
2023-05-05T15:07:51.641Z,22
2023-05-05T15:08:58.466Z,22
2023-05-05T15:10:05.487Z,22.1
2023-05-05T15:11:12.554Z,22.1
2023-05-05T15:12:19.463Z,22.1
2023-05-05T15:13:26.446Z,22.1
2023-05-05T15:14:33.329Z,22.3
2023-05-05T15:15:40.241Z,22.2
2023-05-05T15:16:47.113Z,21.9
2023-05-05T15:17:54.176Z,21.8
2023-05-05T15:19:01.063Z,21.8